Time;durP1;ratioP1;P1;durP2;ratioP2;P2;SDS_P1;SDS_P2;PMS_P1;PMS_P2;Temp;Humidity;BMP_temperature;BMP_pressure;BME280_temperature;BME280_humidity;BME280_pressure;Samples;Min_cycle;Max_cycle;Signal;HPM_P1;HPM_P2
2021/08/04 00:00:38;;;;;;;7.88;6.10;;;;;;;21.02;55.81;101285.19;5014266;28;20743;-64
2021/08/04 00:03:04;;;;;;;7.20;6.20;;;;;;;21.01;55.67;101291.44;5013388;28;20219;-63
2021/08/04 00:05:29;;;;;;;6.90;6.20;;;;;;;21.00;55.44;101287.97;5014179;28;20305;-64
2021/08/04 00:07:55;;;;;;;7.43;6.13;;;;;;;20.98;55.55;101284.63;5013980;28;20104;-65
2021/08/04 00:10:21;;;;;;;7.00;6.30;;;;;;;21.00;55.18;101290.63;5013267;28;20026;-64
2021/08/04 00:12:47;;;;;;;7.88;6.35;;;;;;;20.98;55.52;101287.28;5013587;28;20026;-63
2021/08/04 00:15:14;;;;;;;7.72;6.55;;;;;;;20.99;55.45;101290.75;5014124;28;20072;-63
2021/08/04 00:17:40;;;;;;;7.90;6.50;;;;;;;20.99;55.33;101293.41;5013366;28;20152;-64
2021/08/04 00:20:07;;;;;;;7.18;6.30;;;;;;;20.99;55.47;101298.69;5013550;28;20100;-64
2021/08/04 00:22:33;;;;;;;6.53;5.80;;;;;;;21.00;55.37;101287.16;5013847;28;20366;-63
2021/08/04 00:24:58;;;;;;;7.88;6.10;;;;;;;20.96;55.17;101293.66;5012596;28;20022;-63
2021/08/04 00:27:26;;;;;;;7.35;5.95;;;;;;;20.96;55.31;101296.31;5013984;28;20462;-63
2021/08/04 00:29:52;;;;;;;7.38;6.03;;;;;;;20.89;55.34;101287.22;5013593;28;20037;-64
2021/08/04 00:32:17;;;;;;;6.85;5.93;;;;;;;20.98;55.33;101302.31;5013094;28;20018;-64
2021/08/04 00:34:43;;;;;;;6.95;6.10;;;;;;;20.95;55.38;101297.28;5013736;28;20056;-63
2021/08/04 00:37:08;;;;;;;6.82;6.13;;;;;;;20.96;55.21;101298.97;5013439;28;20489;-63
2021/08/04 00:39:33;;;;;;;7.63;5.90;;;;;;;20.95;55.22;101300.78;5012835;28;20433;-65
2021/08/04 00:41:58;;;;;;;7.67;6.20;;;;;;;20.93;55.21;101288.63;5013378;28;20033;-63
2021/08/04 00:44:24;;;;;;;8.35;6.40;;;;;;;20.95;55.09;101286.69;5012718;28;20639;-63
2021/08/04 00:46:49;;;;;;;6.63;5.85;;;;;;;20.94;55.45;101288.50;5013231;28;20022;-63
2021/08/04 00:49:15;;;;;;;7.25;6.28;;;;;;;20.94;55.23;101285.84;5012991;28;20029;-64
2021/08/04 00:51:40;;;;;;;7.43;6.07;;;;;;;20.93;55.24;101286.81;5012235;28;20464;-63
2021/08/04 00:54:08;;;;;;;8.02;6.47;;;;;;;20.92;55.10;101281.66;5012693;28;20046;-63
2021/08/04 00:56:34;;;;;;;7.63;5.95;;;;;;;20.93;55.12;101292.09;5013541;28;20022;-64
2021/08/04 00:59:01;;;;;;;7.32;6.43;;;;;;;20.92;55.23;101290.44;5012146;28;20474;-63
2021/08/04 01:01:48;;;;;;;7.22;6.47;;;;;;;20.92;55.23;101298.41;5013284;28;20033;-63
2021/08/04 01:04:28;;;;;;;7.30;5.95;;;;;;;20.92;55.27;101294.88;5013119;28;20041;-64
2021/08/04 01:07:12;;;;;;;7.18;6.35;;;;;;;20.91;55.31;101293.22;5012305;28;20022;-64
2021/08/04 01:09:43;;;;;;;6.60;5.90;;;;;;;20.90;55.23;101291.53;5012953;28;20021;-63
2021/08/04 01:12:11;;;;;;;6.78;5.88;;;;;;;20.89;55.13;101292.53;5013121;28;20045;-63
2021/08/04 01:14:40;;;;;;;8.82;5.95;;;;;;;20.90;55.17;101291.53;5012187;28;20040;-63
2021/08/04 01:17:08;;;;;;;7.15;6.13;;;;;;;20.87;55.30;101286.50;5012586;28;20180;-63
2021/08/04 01:19:33;;;;;;;7.15;6.00;;;;;;;20.89;55.34;101297.84;5012355;28;20072;-63
2021/08/04 01:22:08;;;;;;;6.93;5.67;;;;;;;20.88;55.14;101299.63;5012467;28;20157;-63
2021/08/04 01:24:39;;;;;;;6.65;5.95;;;;;;;20.88;55.26;101299.63;5012887;28;20038;-63
2021/08/04 01:27:05;;;;;;;7.45;5.70;;;;;;;20.87;55.28;101300.63;5011770;28;20026;-64
2021/08/04 01:29:30;;;;;;;7.53;5.75;;;;;;;20.87;55.07;101297.97;5012706;28;20057;-63
2021/08/04 01:32:00;;;;;;;7.50;6.00;;;;;;;20.87;55.16;101295.31;5012634;28;20065;-63
2021/08/04 01:34:27;;;;;;;6.70;5.72;;;;;;;20.86;55.07;101296.28;5011921;28;20474;-64
2021/08/04 01:36:53;;;;;;;7.20;5.65;;;;;;;20.87;55.14;101299.75;5012483;28;20028;-63
2021/08/04 01:39:20;;;;;;;6.72;5.72;;;;;;;20.86;55.08;101290.16;5012947;28;20029;-64
2021/08/04 01:41:53;;;;;;;6.75;5.72;;;;;;;20.86;54.92;101295.44;5011628;28;20169;-64
2021/08/04 01:44:19;;;;;;;7.85;6.30;;;;;;;20.86;55.14;101298.09;5012851;28;20074;-63
2021/08/04 01:46:46;;;;;;;6.65;5.80;;;;;;;20.84;55.11;101288.47;5012409;28;20025;-63
2021/08/04 01:49:12;;;;;;;6.35;5.53;;;;;;;20.84;55.16;101290.28;5011758;28;20049;-63
2021/08/04 01:51:38;;;;;;;7.35;5.78;;;;;;;20.82;54.93;101290.41;5012584;28;20097;-64
2021/08/04 01:54:04;;;;;;;7.20;5.70;;;;;;;20.82;55.18;101287.75;5012133;28;20522;-64
2021/08/04 01:56:29;;;;;;;6.72;5.65;;;;;;;20.82;55.04;101289.53;5011782;28;20080;-64
2021/08/04 01:58:55;;;;;;;8.40;5.68;;;;;;;20.80;54.91;101284.38;5012067;28;20084;-64
2021/08/04 02:01:25;;;;;;;7.28;5.90;;;;;;;20.82;54.74;101286.91;5013745;28;20028;-64
2021/08/04 02:03:52;;;;;;;6.20;5.60;;;;;;;20.82;54.98;101282.47;5015704;28;20101;-64
2021/08/04 02:06:43;;;;;;;6.88;5.55;;;;;;;20.82;55.00;101279.81;5016708;28;20025;-63
2021/08/04 02:09:19;;;;;;;7.88;6.03;;;;;;;20.82;54.96;101278.94;5015708;28;20021;-64
2021/08/04 02:12:11;;;;;;;6.75;5.38;;;;;;;20.81;54.91;101278.13;5016317;28;20076;-64
2021/08/04 02:15:03;;;;;;;6.65;5.50;;;;;;;20.82;54.88;101271.00;4993353;28;20442;-64
2021/08/04 02:17:36;;;;;;;6.57;5.30;;;;;;;20.81;54.91;101269.34;5015479;28;20034;-63
2021/08/04 02:20:22;;;;;;;6.18;5.25;;;;;;;20.81;54.77;101266.69;5016227;28;20089;-64
2021/08/04 02:22:51;;;;;;;8.13;5.30;;;;;;;20.80;54.88;101272.97;5015292;28;20470;-63
2021/08/04 02:25:31;;;;;;;6.28;5.40;;;;;;;20.80;54.68;101267.66;5016129;28;20065;-63
2021/08/04 02:27:58;;;;;;;6.05;5.20;;;;;;;20.77;54.81;101263.44;5015803;28;20018;-63
2021/08/04 02:30:23;;;;;;;6.18;5.30;;;;;;;20.77;54.68;101274.03;5015592;28;20165;-63
2021/08/04 02:32:50;;;;;;;6.32;5.47;;;;;;;20.78;54.91;101273.09;5016011;28;20108;-63
2021/08/04 02:35:16;;;;;;;6.40;5.20;;;;;;;20.78;54.89;101272.25;5016320;28;20037;-63
2021/08/04 02:37:43;;;;;;;6.18;5.57;;;;;;;20.76;54.58;101277.69;5015139;28;20030;-63
2021/08/04 02:40:10;;;;;;;5.82;4.97;;;;;;;20.77;54.78;101279.34;5015922;28;20028;-64
2021/08/04 02:42:45;;;;;;;7.93;5.65;;;;;;;20.77;54.67;101278.50;5015750;28;20049;-64
2021/08/04 02:45:11;;;;;;;6.22;5.10;;;;;;;20.76;54.61;101279.47;5014847;28;20450;-64
2021/08/04 02:47:37;;;;;;;6.30;5.40;;;;;;;20.76;54.74;101272.38;5015883;28;20026;-63
2021/08/04 02:50:05;;;;;;;6.03;5.28;;;;;;;20.76;54.70;101268.88;5015495;28;20396;-63
2021/08/04 02:52:32;;;;;;;6.47;5.38;;;;;;;20.76;54.65;101275.03;5014705;28;20518;-63
2021/08/04 02:54:58;;;;;;;6.25;5.20;;;;;;;20.76;54.99;101271.53;5015419;28;20474;-63
2021/08/04 02:57:24;;;;;;;6.32;5.13;;;;;;;20.75;54.55;101272.53;5015465;28;20114;-63
2021/08/04 02:59:49;;;;;;;6.18;5.15;;;;;;;20.75;54.62;101273.34;5014718;28;20022;-64
2021/08/04 03:02:15;;;;;;;6.70;5.03;;;;;;;20.74;54.80;101273.47;5015596;28;20141;-63
2021/08/04 03:04:40;;;;;;;7.17;5.40;;;;;;;20.74;54.67;101269.00;5015375;28;20056;-64
2021/08/04 03:07:05;;;;;;;6.38;4.90;;;;;;;20.72;54.47;101268.31;5013495;28;20268;-63
2021/08/04 03:09:31;;;;;;;6.30;5.22;;;;;;;20.74;54.34;101273.47;5014933;28;20034;-63
2021/08/04 03:11:59;;;;;;;6.75;4.85;;;;;;;20.74;54.49;101276.97;5014694;28;20026;-63
2021/08/04 03:14:25;;;;;;;5.88;5.05;;;;;;;20.73;54.52;101269.13;5013872;28;20022;-63
2021/08/04 03:16:50;;;;;;;6.50;5.30;;;;;;;20.72;54.54;101270.97;5014737;28;20026;-64
2021/08/04 03:19:15;;;;;;;5.90;4.93;;;;;;;20.72;54.52;101278.06;5014148;28;20029;-63
2021/08/04 03:21:41;;;;;;;6.05;5.07;;;;;;;20.71;54.31;101276.38;5014906;28;20037;-64
2021/08/04 03:24:07;;;;;;;6.25;4.82;;;;;;;20.71;54.30;101282.53;5014464;28;20026;-64
2021/08/04 03:26:33;;;;;;;6.30;4.85;;;;;;;20.70;54.50;101278.22;5014443;28;20022;-64
2021/08/04 03:28:58;;;;;;;6.20;4.65;;;;;;;20.69;54.53;101275.69;5014862;28;20030;-63
2021/08/04 03:31:23;;;;;;;6.55;5.15;;;;;;;20.69;54.48;101283.63;5015185;28;20068;-64
2021/08/04 03:33:49;;;;;;;6.15;4.50;;;;;;;20.68;54.23;101287.25;5014034;28;20017;-64
2021/08/04 03:36:14;;;;;;;6.35;4.80;;;;;;;20.68;54.10;101281.94;5014946;28;20545;-63
2021/08/04 03:38:39;;;;;;;5.70;4.50;;;;;;;20.71;54.29;101284.34;5014759;28;20481;-64
2021/08/04 03:41:05;;;;;;;6.05;4.65;;;;;;;20.68;54.25;101285.44;5013928;28;20026;-64
2021/08/04 03:43:30;;;;;;;5.82;5.00;;;;;;;20.69;54.38;101283.63;5014851;28;20385;-64
2021/08/04 03:45:55;;;;;;;5.80;4.47;;;;;;;20.69;54.44;101284.47;5014635;28;20075;-63
2021/08/04 03:48:23;;;;;;;5.70;4.80;;;;;;;20.68;54.20;101287.25;5014145;28;20030;-63
2021/08/04 03:50:51;;;;;;;5.45;4.60;;;;;;;20.69;54.14;101291.56;5014484;28;20026;-63
2021/08/04 03:53:19;;;;;;;6.07;4.70;;;;;;;20.66;54.19;101287.38;5015518;28;20042;-63
2021/08/04 03:55:45;;;;;;;5.80;4.75;;;;;;;20.67;54.27;101291.72;5014166;28;20026;-64
2021/08/04 03:58:12;;;;;;;5.78;4.60;;;;;;;20.67;54.32;101294.34;5014953;28;20030;-64
2021/08/04 04:00:38;;;;;;;5.65;4.68;;;;;;;20.67;54.32;101288.22;5015038;28;20026;-63
2021/08/04 04:03:03;;;;;;;6.03;4.70;;;;;;;20.64;54.25;101290.16;5013873;28;20401;-63
2021/08/04 04:05:28;;;;;;;6.53;5.22;;;;;;;20.66;54.36;101290.03;5014803;28;20061;-64
2021/08/04 04:07:54;;;;;;;6.27;4.77;;;;;;;20.65;54.05;101291.84;5015450;28;20021;-64
2021/08/04 04:10:19;;;;;;;5.80;4.60;;;;;;;20.61;54.37;101279.78;5016391;28;20321;-64
2021/08/04 04:12:44;;;;;;;7.22;5.10;;;;;;;20.64;54.33;101287.50;5016853;28;20427;-64
2021/08/04 04:15:10;;;;;;;6.37;4.77;;;;;;;20.64;54.30;101286.66;5015894;28;20026;-63
2021/08/04 04:17:35;;;;;;;6.43;4.85;;;;;;;20.63;54.14;101293.75;5014018;28;20303;-64
2021/08/04 04:20:01;;;;;;;6.18;4.43;;;;;;;20.62;54.36;101294.72;5014707;28;20064;-65
2021/08/04 04:22:29;;;;;;;6.00;4.55;;;;;;;20.63;54.15;101295.53;5014288;28;20014;-64
2021/08/04 04:24:54;;;;;;;6.05;4.85;;;;;;;20.62;54.32;101297.38;5014750;28;20033;-64
2021/08/04 04:27:20;;;;;;;6.60;4.40;;;;;;;20.62;54.32;101300.00;5016855;28;20029;-63
2021/08/04 04:29:45;;;;;;;5.82;4.72;;;;;;;20.63;54.36;101300.84;5014483;28;20026;-63
2021/08/04 04:32:11;;;;;;;6.18;4.80;;;;;;;20.60;54.10;101299.31;5015329;28;20037;-63
2021/08/04 04:34:36;;;;;;;5.47;4.72;;;;;;;20.62;54.35;101304.47;5014943;28;20608;-63
2021/08/04 04:37:02;;;;;;;6.38;4.95;;;;;;;20.63;54.21;101298.19;5013989;28;20033;-63
2021/08/04 04:39:27;;;;;;;6.70;4.78;;;;;;;20.60;54.15;101301.97;5015219;28;20466;-63
2021/08/04 04:41:53;;;;;;;5.50;4.63;;;;;;;20.61;54.19;101306.25;5013924;28;20022;-63
2021/08/04 04:44:18;;;;;;;6.25;4.20;;;;;;;20.59;54.05;101308.22;5013391;28;20029;-64
2021/08/04 04:46:44;;;;;;;6.45;4.50;;;;;;;20.61;54.18;101316.84;5013969;28;20022;-64
2021/08/04 04:49:09;;;;;;;5.70;4.22;;;;;;;20.60;54.43;101309.03;5013749;28;20026;-63
2021/08/04 04:51:34;;;;;;;5.93;4.53;;;;;;;20.61;54.35;101306.25;5012718;28;20064;-63
2021/08/04 04:54:00;;;;;;;6.55;4.70;;;;;;;20.61;54.33;101300.97;5012998;28;20050;-63
2021/08/04 04:56:25;;;;;;;5.82;4.30;;;;;;;20.62;54.44;101304.47;5013683;28;20029;-63
2021/08/04 04:58:51;;;;;;;7.43;4.57;;;;;;;20.58;54.20;101295.94;5012481;28;20358;-63
2021/08/04 05:01:16;;;;;;;6.07;4.50;;;;;;;20.61;54.21;101300.13;5013506;28;20035;-62
2021/08/04 05:03:41;;;;;;;5.60;4.33;;;;;;;20.60;54.22;101301.09;5013276;28;20371;-63
2021/08/04 05:06:12;;;;;;;6.80;4.77;;;;;;;20.62;54.35;101313.25;5012080;28;20295;-64
2021/08/04 05:08:37;;;;;;;6.60;4.60;;;;;;;20.61;54.32;101306.25;5012589;28;20774;-64
2021/08/04 05:11:03;;;;;;;5.10;4.20;;;;;;;20.61;54.35;101308.09;5012990;28;20039;-64
2021/08/04 05:13:28;;;;;;;6.20;4.78;;;;;;;20.61;54.35;101314.22;5012592;28;20628;-64
2021/08/04 05:15:54;;;;;;;6.35;4.88;;;;;;;20.58;54.46;101305.69;5012950;28;20136;-64
2021/08/04 05:18:19;;;;;;;6.45;4.68;;;;;;;20.61;54.56;101319.50;5013320;28;20014;-63
2021/08/04 05:20:44;;;;;;;5.73;4.70;;;;;;;20.60;54.34;101314.34;5011943;28;20541;-64
2021/08/04 05:23:10;;;;;;;5.50;4.40;;;;;;;20.60;54.49;101315.19;5012973;28;20294;-62
2021/08/04 05:25:36;;;;;;;5.65;4.68;;;;;;;20.57;54.55;101311.94;5013116;28;20033;-63
2021/08/04 05:28:02;;;;;;;5.57;4.53;;;;;;;20.60;54.65;101324.94;5012330;28;20026;-63
2021/08/04 05:30:27;;;;;;;5.85;4.70;;;;;;;20.60;54.66;101324.94;5013189;28;20381;-63
2021/08/04 05:32:52;;;;;;;6.65;4.40;;;;;;;20.60;54.70;101323.13;5011918;28;20030;-63
2021/08/04 05:35:18;;;;;;;5.90;4.50;;;;;;;20.60;54.63;101323.13;5012731;28;20066;-63
2021/08/04 05:37:43;;;;;;;7.22;4.78;;;;;;;20.60;54.72;101324.94;5012196;28;20026;-64
2021/08/04 05:40:09;;;;;;;7.70;4.57;;;;;;;20.60;54.81;101330.22;5012177;28;20022;-63
2021/08/04 05:42:34;;;;;;;5.53;4.55;;;;;;;20.59;54.75;101326.75;5012521;28;20396;-63
2021/08/04 05:44:59;;;;;;;5.80;4.72;;;;;;;20.58;54.60;101324.22;5012394;28;20069;-64
2021/08/04 05:47:25;;;;;;;5.80;4.90;;;;;;;20.59;54.60;101324.09;5011882;28;20045;-62
2021/08/04 05:49:50;;;;;;;5.47;4.50;;;;;;;20.60;54.64;101322.28;5012160;28;20063;-64
2021/08/04 05:52:19;;;;;;;7.07;4.65;;;;;;;20.60;54.71;101324.94;5012604;28;20018;-64
2021/08/04 05:54:44;;;;;;;6.03;4.65;;;;;;;20.59;54.71;101323.28;5011620;28;20061;-63
2021/08/04 05:57:10;;;;;;;6.68;4.40;;;;;;;20.59;54.86;101323.28;5012702;28;20022;-63
2021/08/04 05:59:38;;;;;;;6.15;4.70;;;;;;;20.59;54.64;101318.81;5012453;28;20022;-64
2021/08/04 06:02:03;;;;;;;5.68;4.57;;;;;;;20.60;54.77;101316.97;5011304;28;20100;-63
2021/08/04 06:04:28;;;;;;;6.25;4.82;;;;;;;20.59;54.82;101317.97;5012151;28;20034;-63
2021/08/04 06:06:54;;;;;;;7.72;4.80;;;;;;;20.59;55.08;101324.09;5012191;28;20038;-63
2021/08/04 06:09:19;;;;;;;6.40;4.60;;;;;;;20.58;55.23;101314.47;5011660;28;20498;-64
2021/08/04 06:11:44;;;;;;;6.43;4.50;;;;;;;20.58;54.91;101316.28;5011922;28;20529;-64
2021/08/04 06:14:09;;;;;;;7.37;4.50;;;;;;;20.60;55.13;101330.22;5012522;28;20028;-63
2021/08/04 06:16:35;;;;;;;6.97;4.85;;;;;;;20.60;55.00;101322.28;5010501;28;20621;-63
2021/08/04 06:19:00;;;;;;;5.43;4.40;;;;;;;20.61;54.87;101331.91;5011894;28;20096;-64
2021/08/04 06:21:28;;;;;;;6.20;4.60;;;;;;;20.59;55.20;101329.41;5012101;28;20389;-64
2021/08/04 06:23:54;;;;;;;6.95;4.60;;;;;;;20.60;54.81;101333.72;5011278;28;20049;-64
2021/08/04 06:26:19;;;;;;;6.70;4.60;;;;;;;20.60;54.85;101332.88;5012210;28;20038;-63
2021/08/04 06:28:45;;;;;;;6.80;5.18;;;;;;;20.60;54.94;101332.88;5011333;28;20137;-63
2021/08/04 06:31:11;;;;;;;6.35;4.65;;;;;;;20.60;55.02;101330.22;5011325;28;20092;-63
2021/08/04 06:33:36;;;;;;;7.72;4.78;;;;;;;20.60;55.07;101330.22;5012041;28;20034;-63
2021/08/04 06:36:02;;;;;;;6.32;4.32;;;;;;;20.60;54.93;101328.44;5010989;28;20026;-64
2021/08/04 06:38:30;;;;;;;7.90;4.57;;;;;;;20.61;55.14;101329.28;5011903;28;20482;-62
2021/08/04 06:40:55;;;;;;;6.43;4.18;;;;;;;20.61;55.25;101329.28;5011890;28;20033;-67
2021/08/04 06:43:22;;;;;;;7.17;4.40;;;;;;;20.59;55.16;101318.81;5011239;28;20033;-66
2021/08/04 06:45:47;;;;;;;5.80;4.50;;;;;;;20.61;55.08;101323.97;5011509;28;20872;-64
2021/08/04 06:48:16;;;;;;;5.43;3.92;;;;;;;20.63;55.29;101329.97;5014284;28;20046;-63
2021/08/04 06:50:41;;;;;;;6.10;4.35;;;;;;;20.65;55.52;101336.03;5015129;28;20018;-65
2021/08/04 06:53:06;;;;;;;4.80;4.07;;;;;;;20.66;55.65;101329.75;5015314;28;20125;-66
2021/08/04 06:55:35;;;;;;;6.13;3.78;;;;;;;20.70;55.87;101335.66;5015657;28;20038;-63
2021/08/04 06:58:00;;;;;;;6.38;4.03;;;;;;;20.74;55.74;101332.56;4961546;28;20441;-64
2021/08/04 07:00:26;;;;;;;7.10;4.40;;;;;;;20.77;55.98;101334.13;5015483;28;20021;-63
2021/08/04 07:02:51;;;;;;;4.78;3.60;;;;;;;20.78;55.88;101335.81;5015040;28;20033;-66
2021/08/04 07:05:17;;;;;;;8.37;4.37;;;;;;;20.80;56.06;101334.72;5015112;28;20427;-64
2021/08/04 07:07:46;;;;;;;5.85;4.13;;;;;;;20.82;55.98;101334.56;5015737;28;20279;-65
2021/08/04 07:10:12;;;;;;;7.68;4.25;;;;;;;20.83;56.05;101334.44;4927357;28;20046;-67
2021/08/04 07:12:43;;;;;;;5.47;3.72;;;;;;;20.86;55.92;101335.19;5004908;28;20044;-64
2021/08/04 07:15:11;;;;;;;6.95;3.85;;;;;;;20.87;56.10;101334.19;5034167;28;20040;-66
2021/08/04 07:17:45;;;;;;;6.35;3.90;;;;;;;20.88;56.03;101336.72;5034737;28;20087;-64
2021/08/04 07:20:14;;;;;;;6.40;4.45;;;;;;;20.90;56.03;101333.94;5034328;28;20028;-63
2021/08/04 07:22:39;;;;;;;6.70;3.83;;;;;;;20.92;56.29;101334.63;5034668;28;20029;-64
2021/08/04 07:25:09;;;;;;;5.70;4.13;;;;;;;20.92;56.18;101327.53;5036548;28;20037;-64
2021/08/04 07:27:34;;;;;;;6.88;3.92;;;;;;;20.95;56.34;101329.94;5034158;28;20492;-65
2021/08/04 07:30:00;;;;;;;5.97;4.28;;;;;;;20.99;56.33;101323.38;5034789;28;20026;-64
2021/08/04 07:32:25;;;;;;;5.90;3.72;;;;;;;21.00;56.14;101322.41;5034400;28;20108;-63
2021/08/04 07:34:51;;;;;;;5.90;4.25;;;;;;;21.02;56.53;101322.28;5034851;28;20033;-64
2021/08/04 07:37:16;;;;;;;7.43;3.80;;;;;;;21.05;56.53;101321.19;5035080;28;20026;-64
2021/08/04 07:39:42;;;;;;;6.30;3.90;;;;;;;21.07;56.50;101313.94;5036919;28;20137;-62
2021/08/04 07:42:07;;;;;;;6.18;3.55;;;;;;;21.09;56.46;101322.59;5035653;28;20049;-63
2021/08/04 07:44:35;;;;;;;5.37;3.47;;;;;;;21.10;56.56;101322.47;5035094;28;20473;-63
2021/08/04 07:47:00;;;;;;;5.35;3.70;;;;;;;21.10;56.47;101322.47;5033489;28;20742;-63
2021/08/04 07:49:25;;;;;;;5.53;3.38;;;;;;;21.14;56.38;101328.31;5034783;28;20032;-62
2021/08/04 07:51:50;;;;;;;6.30;3.50;;;;;;;21.14;56.44;101331.84;5034552;28;20064;-62
2021/08/04 07:54:16;;;;;;;4.82;3.50;;;;;;;21.14;56.22;101321.22;5033665;28;20314;-63
2021/08/04 07:56:41;;;;;;;5.00;3.43;;;;;;;21.16;56.14;101329.06;5034561;28;20429;-68
2021/08/04 07:59:06;;;;;;;6.40;3.40;;;;;;;21.15;55.94;101324.72;5034175;28;20262;-64
2021/08/04 08:01:32;;;;;;;6.43;3.20;;;;;;;21.18;56.00;101322.63;5035700;28;20025;-64
2021/08/04 08:04:03;;;;;;;5.72;3.13;;;;;;;21.19;56.24;101319.00;5036809;28;20025;-65
2021/08/04 08:06:29;;;;;;;5.10;3.10;;;;;;;21.19;56.07;101318.19;5035399;28;20453;-63
2021/08/04 08:08:54;;;;;;;5.35;3.38;;;;;;;21.22;56.03;101319.72;5033512;28;20028;-64
2021/08/04 08:11:19;;;;;;;5.18;3.55;;;;;;;21.23;56.06;101321.41;5034447;28;20481;-64
2021/08/04 08:13:45;;;;;;;4.90;3.03;;;;;;;21.22;55.84;101311.75;5034039;28;20496;-67
2021/08/04 08:16:10;;;;;;;6.35;3.40;;;;;;;21.22;55.99;101325.00;5033197;28;20033;-64
2021/08/04 08:18:35;;;;;;;4.35;2.97;;;;;;;21.21;56.13;101316.22;5033825;28;20055;-62
2021/08/04 08:21:01;;;;;;;5.03;3.25;;;;;;;21.23;55.92;101316.94;5033808;28;20117;-64
2021/08/04 08:23:26;;;;;;;4.90;3.10;;;;;;;21.23;56.12;101310.81;5035922;28;20021;-64
2021/08/04 08:25:51;;;;;;;4.70;2.90;;;;;;;21.26;55.86;101307.88;5034726;28;20025;-64
2021/08/04 08:28:17;;;;;;;6.07;3.40;;;;;;;21.25;55.87;101301.72;5034299;28;20022;-63
2021/08/04 08:30:44;;;;;;;5.07;3.17;;;;;;;21.27;56.04;101299.78;5034732;28;20441;-62
2021/08/04 08:33:09;;;;;;;5.55;3.13;;;;;;;21.28;55.93;101297.97;5035388;28;20033;-63
2021/08/04 08:35:35;;;;;;;5.93;2.88;;;;;;;21.29;56.01;101307.63;5033847;28;20073;-63
2021/08/04 08:38:01;;;;;;;4.72;2.80;;;;;;;21.31;55.94;101311.78;5033882;28;20028;-61
2021/08/04 08:40:27;;;;;;;4.93;3.10;;;;;;;21.29;55.74;101307.63;5033731;28;20036;-63
2021/08/04 08:42:53;;;;;;;6.53;2.97;;;;;;;21.32;55.99;101308.19;5032466;28;20606;-63
2021/08/04 08:45:19;;;;;;;5.47;3.20;;;;;;;21.33;55.90;101301.06;5033919;28;20366;-62
2021/08/04 08:47:45;;;;;;;5.63;3.13;;;;;;;21.33;55.98;101301.91;5033288;28;20036;-63
2021/08/04 08:50:12;;;;;;;4.57;2.85;;;;;;;21.35;56.00;101305.25;5032720;28;20025;-63
2021/08/04 08:52:38;;;;;;;4.75;3.15;;;;;;;21.35;55.97;101305.25;5033674;28;20512;-62
2021/08/04 08:55:06;;;;;;;5.25;2.88;;;;;;;21.35;55.87;101305.25;5033172;28;20033;-62
2021/08/04 08:57:31;;;;;;;4.45;2.88;;;;;;;21.37;56.01;101313.06;5032726;28;20389;-63
2021/08/04 08:59:58;;;;;;;4.30;2.97;;;;;;;21.37;55.91;101311.25;5033624;28;20032;-62
2021/08/04 09:02:24;;;;;;;6.07;2.65;;;;;;;21.38;56.15;101307.66;5033524;28;20104;-62
2021/08/04 09:05:08;;;;;;;5.15;2.72;;;;;;;21.36;55.93;101317.56;5031982;28;20377;-62
2021/08/04 09:07:38;;;;;;;5.28;3.10;;;;;;;21.36;55.55;101312.25;5032814;28;20018;-64
2021/08/04 09:10:30;;;;;;;5.90;3.13;;;;;;;21.38;55.74;101317.41;5032766;28;20052;-66
2021/08/04 09:13:04;;;;;;;4.72;2.95;;;;;;;21.36;55.46;101314.03;5032736;28;20163;-65
2021/08/04 09:15:42;;;;;;;4.90;2.70;;;;;;;21.35;55.29;101317.69;5032831;28;20350;-67
2021/08/04 09:18:14;;;;;;;9.00;2.85;;;;;;;21.35;55.13;101321.16;5032702;28;20031;-67
2021/08/04 09:20:53;;;;;;;4.85;2.63;;;;;;;21.34;55.27;101323.94;5033430;28;20029;-61
2021/08/04 09:23:24;;;;;;;5.85;2.60;;;;;;;21.33;55.22;101315.16;5032745;28;20152;-64
2021/08/04 09:26:06;;;;;;;5.40;2.72;;;;;;;21.33;55.23;101319.59;5031392;28;20056;-63
2021/08/04 09:29:00;;;;;;;6.40;2.80;;;;;;;21.31;55.32;101311.78;5032562;28;20045;-63
2021/08/04 09:31:41;;;;;;;6.78;2.72;;;;;;;21.30;55.22;101303.97;5032581;28;20037;-64
2021/08/04 09:34:33;;;;;;;5.63;2.50;;;;;;;21.28;55.27;101306.75;5031432;28;20385;-64
2021/08/04 09:37:12;;;;;;;5.80;2.80;;;;;;;21.28;55.11;101312.06;5032032;28;20505;-64
2021/08/04 09:39:42;;;;;;;4.53;2.75;;;;;;;21.26;55.20;101314.00;5031922;28;20028;-64
2021/08/04 09:42:08;;;;;;;4.82;2.63;;;;;;;21.26;55.13;101315.84;5032004;28;20420;-64
2021/08/04 09:44:34;;;;;;;5.15;3.05;;;;;;;21.25;55.29;101314.16;5032321;28;20040;-64
2021/08/04 09:47:26;;;;;;;5.22;2.70;;;;;;;21.24;54.94;101305.38;5031298;28;20034;-63
2021/08/04 09:49:58;;;;;;;3.80;2.53;;;;;;;21.24;54.92;101299.19;5027855;28;20045;-64
2021/08/04 09:52:24;;;;;;;5.30;3.25;;;;;;;21.23;54.83;101306.31;5032149;28;20021;-64
2021/08/04 09:54:49;;;;;;;4.85;2.53;;;;;;;21.23;54.93;101302.84;5031086;28;20171;-63
2021/08/04 09:57:15;;;;;;;4.40;2.30;;;;;;;21.20;54.78;101293.34;5032109;28;20025;-63
2021/08/04 09:59:40;;;;;;;4.72;2.50;;;;;;;21.22;54.81;101302.03;5032174;28;20028;-64
2021/08/04 10:02:28;;;;;;;4.45;2.40;;;;;;;21.20;54.71;101302.16;5030866;28;20432;-64
2021/08/04 10:05:24;;;;;;;5.88;2.58;;;;;;;21.22;54.67;101303.81;5031826;28;20048;-64
2021/08/04 10:07:59;;;;;;;4.32;2.47;;;;;;;21.20;54.46;101296.00;5031056;28;20033;-64
2021/08/04 10:10:25;;;;;;;4.35;2.50;;;;;;;21.20;54.59;101296.00;5031929;28;20045;-65
2021/08/04 10:12:50;;;;;;;4.57;2.40;;;;;;;21.20;54.77;101296.84;5031898;28;20053;-64
2021/08/04 10:15:21;;;;;;;6.93;2.40;;;;;;;21.19;54.62;101287.22;5031593;28;20014;-64
2021/08/04 10:17:47;;;;;;;4.15;2.47;;;;;;;21.20;54.58;101294.19;5031653;28;20044;-64
2021/08/04 10:20:12;;;;;;;4.22;2.50;;;;;;;21.20;54.59;101296.00;5032042;28;20323;-63
2021/08/04 10:22:38;;;;;;;4.88;2.60;;;;;;;21.20;54.75;101290.69;5032659;28;20039;-63
2021/08/04 10:25:04;;;;;;;4.43;2.63;;;;;;;21.19;54.92;101294.34;5035315;28;20138;-64
2021/08/04 10:27:30;;;;;;;5.07;2.67;;;;;;;21.17;54.44;101289.16;5035946;28;20038;-64
2021/08/04 10:29:56;;;;;;;4.38;2.60;;;;;;;21.16;54.65;101287.47;5034762;28;20395;-65
2021/08/04 10:32:21;;;;;;;4.80;2.30;;;;;;;21.13;54.75;101287.75;5036054;28;20040;-64
2021/08/04 10:34:49;;;;;;;4.05;2.30;;;;;;;21.17;54.90;101275.91;5035640;28;20053;-65
2021/08/04 10:37:15;;;;;;;4.13;2.47;;;;;;;21.18;54.90;101276.75;5035191;28;20029;-63
2021/08/04 10:39:41;;;;;;;4.70;2.50;;;;;;;21.17;54.78;101269.75;5035641;28;20047;-65
2021/08/04 10:42:09;;;;;;;4.10;2.40;;;;;;;21.13;54.32;101260.41;5035296;28;20498;-64
2021/08/04 10:44:35;;;;;;;4.68;2.70;;;;;;;21.19;54.43;101276.59;5035596;28;20168;-63
2021/08/04 10:47:04;;;;;;;4.30;2.47;;;;;;;21.20;54.38;101274.78;5035434;28;20045;-65
2021/08/04 10:49:35;;;;;;;5.18;2.70;;;;;;;21.20;54.39;101272.13;5034929;28;20032;-64
2021/08/04 10:52:00;;;;;;;4.40;2.65;;;;;;;21.22;54.31;101272.00;5035108;28;20048;-64
2021/08/04 10:54:25;;;;;;;7.20;2.40;;;;;;;21.20;54.34;101273.00;5035273;28;20425;-64
2021/08/04 10:56:51;;;;;;;4.78;3.03;;;;;;;21.22;54.43;101264.91;5034577;28;20260;-64
2021/08/04 10:59:19;;;;;;;5.53;2.35;;;;;;;21.23;54.21;101271.88;5035428;28;20101;-64
2021/08/04 11:01:48;;;;;;;5.03;2.88;;;;;;;21.22;54.21;101262.25;5035021;28;20037;-63
2021/08/04 11:04:34;;;;;;;4.68;2.40;;;;;;;21.21;54.07;101268.53;5034349;28;20327;-65
2021/08/04 11:07:09;;;;;;;3.85;2.58;;;;;;;21.19;54.23;101260.69;5017641;28;20540;-64
2021/08/04 11:09:44;;;;;;;5.38;2.38;;;;;;;21.19;54.16;101255.41;5034920;28;20081;-64
2021/08/04 11:12:11;;;;;;;3.83;2.38;;;;;;;21.23;54.03;101249.84;5034365;28;20037;-64
2021/08/04 11:14:40;;;;;;;3.70;2.47;;;;;;;21.23;54.00;101258.63;5035135;28;20018;-63
2021/08/04 11:17:07;;;;;;;4.25;2.80;;;;;;;21.22;53.87;101251.66;5034708;28;20045;-63
2021/08/04 11:19:52;;;;;;;4.60;2.50;;;;;;;21.22;54.13;101248.16;5034433;28;20358;-64
2021/08/04 11:22:26;;;;;;;4.10;2.30;;;;;;;21.23;54.07;101245.38;5034726;28;20401;-64
2021/08/04 11:25:28;;;;;;;4.40;2.60;;;;;;;21.23;54.12;101245.38;5033912;28;20100;-64
2021/08/04 11:27:56;;;;;;;4.65;2.58;;;;;;;21.24;53.93;101252.34;5034510;28;20442;-64